• Join FlightAware (Why Join?)
  • Login
  • US Flag 
Rudolph Flight #1: Scheduled 
11:01PM EST


 

Airport Tracker/Info


-or-


 

Live Flight TrackerFlight Track Log ✈ N39751 ✈ 23-May-2013 ✈ KAVL - KGMU

Flight Track Log - Related Links

Times and Time Zones

All times are in EDT time to prevent confusion due to time zone crossing. See the N39751 flight status page for this flight to view local times or setup timezone preferences in your user account.

Time Position Orientation Groundspeed Altitude Reporting Facility
EDT Latitude Longitude Course Direction KTS MPH feet Rate Location/Type
12:42PM 35.1943 -82.4537 165° South  Level FlightAware Approximate
12:43PM 35.1541 -82.4416 167° South  Level FlightAware Approximate
12:44PM 35.1137 -82.4301 167° South  Level FlightAware Approximate
12:45PM 35.0734 -82.4186 167° South  Level FlightAware Approximate
12:46PM 35.0370 -82.4000 180° South  Level FlightAware Approximate
12:47PM 34.9966 -82.3890 166° South  Level FlightAware Approximate
12:48PM 34.9564 -82.3769 166° South  Level FlightAware Approximate
12:49PM 34.9161 -82.3648 166° South  Level FlightAware Approximate
12:50PM 34.8759 -82.3528 166° South  Level FlightAware Approximate
12:51PM 34.8479 -82.3500 180° South  Level Estimated
12:52PM 34.8479 -82.3500 180° South  Level Estimated
12:53PM 34.8479 -82.3500 180° South  Level Estimated
12:54PM 34.8479 -82.3500 180° South  Level Estimated
12:55PM 34.8479 -82.3500 180° South  Level Estimated
12:56PM 34.8479 -82.3500 180° South  Level Estimated
12:57PM 34.8479 -82.3500 180° South  Level Estimated
12:58PM 34.8479 -82.3500 180° South  Level Estimated
12:59PM 34.8479 -82.3500 180° South  Level Estimated
01:00PM 34.8479 -82.3500 180° South  Level Estimated
01:01PM 34.8479 -82.3500 180° South  Level Estimated
01:02PM 34.8479 -82.3500 180° South  Level Estimated
01:03PM 34.8479 -82.3500 180° South  Level Estimated
01:04PM 34.8479 -82.3500 180° South  Level Estimated